Pagrindinis puslapis
METAR-TAF:

METAR-TAF

Oro uostai :

Florianopolis, Santa Katarina, Brazilija

platuma: 27-40S, ilguma: 048-33W, Aukštis: 5 m

Dabartinis oras

Ataskaita buvo paskelbta 29 minutes, ne 08:00 UTC
Vėjas 2 kt iš Pietų
Temperatūra 6°C
Drėgmė 87%
Slėgis 1030 hPa
Matomumas 10 km arba daugiau
nėra debesų žemiau 1500 m ir nėra kamuolinių lietaus debesų

METAR: SBFL 310800Z 19002KT CAVOK 06/04 Q1030

Laikas: 05:29 (08:29 UTC)

Prognozė

Ataskaita buvo paskelbta 4 valandos ir 59 minutes, ne 03:30 UTC
Prognozė galioja nuo 31 metu 06 UTC su 01 metu 06 UTC
Vėjas 6 kt iš Vakarų/Pietvakarių
Matomumas 10 km arba daugiau
nėra debesų žemiau 1500 m ir nėra kamuolinių lietaus debesų
Tapsmas
nuo 31 metu 08 UTC su 31 metu 09 UTC
Vėjas 6 kt iš Šiaurės Rytų
Matomumas 10 km arba daugiau
Su prošvaistėmis ne aukštis 2000 ft
Tapsmas
nuo 31 metu 16 UTC su 31 metu 17 UTC
Vėjas 10 kt iš Rytų

TAF: SBFL 310330Z 3106/0106 25006KT CAVOK TN09/3106Z TX16/3116Z BECMG 3108/3109 05006KT 9999 BKN020 BECMG 3116/3117 10010KT RMK PEC

Orai ataskaitas ir orų prognozės (METAR, TAF).

turimą stotys yra geltonos ir raudonos taškus žemėlapyje.

Perkelti pele per norėdami pamatyti stoties vardą.

Tada spustelėkite, norėdami matyti oro stebėjimo ir prognozės.

Norėdami pakeisti žemėlapį: spustelėkite ant žalios mygtukų su juodo kryžiaus žemyn,; žalią mygtuką su brūkšneliu, jei norite nutolinti; arba žalių rodyklių gretimoms žemėlapius.


METAR-TAF: